Lanikai, HI

7:05 AM HST on February 23, 2017 (GMT -1000)
| | Change Station

Elev -9999 ft 0.00 °N, 0.00 °E | Updated 1 minute ago

Partly Cloudy
Partly Cloudy
°F
Feels Like °F
N
Wind Variable Wind from North
Gusts mph

Today
High -- | Low -- °F
--% Chance of Precip.
Yesterday
High -- | Low -- °F
Precip. -- in
Pressure 30.14 in
Visibility 7.0 miles
Clouds Few 3400 ft
Scattered Clouds 4800 ft
Overcast 6000 ft
Dew Point Not available.
Humidity Not available.
Rainfall --
Snow Depth Not available.
6:55 AM 6:32 PM
Waning Crescent, 9% visible
METAR PHNG 231457Z 06011KT 7SM FEW034 SCT048 OVC060 23/16 A3015 RMK SLP204 6//// T02280161 55013
Pressure 30.14 in
Visibility 7.0 miles
Clouds Few 3400 ft
Scattered Clouds 4800 ft
Overcast 6000 ft
Dew Point Not available.
Humidity Not available.
Rainfall --
Snow Depth Not available.
6:55 AM 6:32 PM
Waning Crescent, 9% visible
METAR PHNG 231457Z 06011KT 7SM FEW034 SCT048 OVC060 23/16 A3015 RMK SLP204 6//// T02280161 55013

Get Your Daily Forecast Email!

Thanks for signing up!

Be on the lookout for a verification email in your inbox.

You'll start receiving the daily forecast at 8 AM.

×

10-Day Weather Forecast

Almanac

Astronomy

Feb. 23, 2017 Rise Set
Actual Time
Civil Twilight
Nautical Twilight
Astronomical Twilight
Moon
Length of Visible Light
Length of Day
Tomorrow will be .
, % of the Moon is Illuminated

Today's Extremes

State Highs State Lows

Community

WunderPhotos

Upload Photos

1,962,540 photos uploaded!

WunderBlog® & News

Nearby

Air Quality

  Air Quality AQ Index Pollutant
Not available.

Snow Depth

Station Depth Elevation

Earthquake Activity

City Distance Mag. Time & Date
Minimum magnitude displayed is 2.5.

Coastal Water Temperatures

Place Temperature

Stations

Nearby Weather Stations

Station Location Temp. Windchill Dew Point Humidity Wind Precip. Elev Updated Type
                   

Watches & Warnings

There are currently no watches in effect.